Time;durP1;ratioP1;P1;durP2;ratioP2;P2;SDS_P1;SDS_P2;PMS_P1;PMS_P2;Temp;Humidity;BMP_temperature;BMP_pressure;BME280_temperature;BME280_humidity;BME280_pressure;Samples;Min_cycle;Max_cycle;Signal;HPM_P1;HPM_P2
2022/08/13 00:02:17;;;;;;;17.80;8.00;;;;;;;23.18;55.41;101595.00;4933027;29;20373;-75
2022/08/13 00:04:56;;;;;;;27.02;7.95;;;;;;;23.12;55.45;101601.50;4932755;29;20478;-74
2022/08/13 00:07:21;;;;;;;17.25;7.30;;;;;;;23.16;54.86;101594.41;4937122;29;20118;-76
2022/08/13 00:09:47;;;;;;;18.48;8.13;;;;;;;23.12;54.62;101601.50;4937619;29;20553;-75
2022/08/13 00:15:27;;;;;;;20.98;8.10;;;;;;;23.04;54.47;101602.72;4930467;29;20174;-75
2022/08/13 00:17:54;;;;;;;17.55;7.75;;;;;;;22.98;54.23;101599.03;4937116;29;20510;-75
2022/08/13 00:20:22;;;;;;;12.85;6.47;;;;;;;22.95;54.47;101595.91;4935143;29;20082;-75
2022/08/13 00:22:48;;;;;;;;;;;;;;;22.88;54.82;101598.81;4937442;29;20031;-76
2022/08/13 00:25:14;;;;;;;12.52;6.80;;;;;;;22.83;55.09;101593.25;4935705;29;19937;-75
2022/08/13 00:27:47;;;;;;;16.25;7.75;;;;;;;22.80;55.17;101601.94;4917818;29;20039;-75
2022/08/13 00:30:15;;;;;;;23.75;7.53;;;;;;;22.79;55.09;101592.06;4934407;29;20137;-75
2022/08/13 00:32:43;;;;;;;19.05;7.75;;;;;;;22.75;55.38;101588.97;4933424;29;20028;-75
2022/08/13 00:35:08;;;;;;;17.63;7.75;;;;;;;22.74;55.42;101597.44;4936165;29;20044;-75
2022/08/13 00:37:37;;;;;;;16.65;6.88;;;;;;;22.72;55.58;101583.97;4918634;29;20404;-75
2022/08/13 00:40:06;;;;;;;13.15;7.78;;;;;;;22.69;55.52;101594.59;4936257;29;20057;-76
2022/08/13 00:42:32;;;;;;;17.55;8.20;;;;;;;22.62;55.56;101588.41;4934775;29;20036;-75
2022/08/13 00:44:58;;;;;;;26.13;7.97;;;;;;;22.54;55.89;101593.22;4935940;29;20082;-75
2022/08/13 00:50:13;;;;;;;13.45;7.90;;;;;;;22.44;55.64;101593.00;4934170;29;20047;-74
2022/08/13 00:52:40;;;;;;;16.80;7.43;;;;;;;22.40;55.53;101591.81;4935081;29;20039;-74
2022/08/13 00:55:09;;;;;;;15.73;7.50;;;;;;;22.33;55.10;101586.50;4929932;29;20030;-75
2022/08/13 00:57:36;;;;;;;17.75;7.93;;;;;;;22.31;55.20;101587.81;4935005;29;20067;-76
2022/08/13 01:00:12;;;;;;;16.90;8.57;;;;;;;22.29;54.52;101595.44;4918585;29;20027;-74
2022/08/13 01:02:40;;;;;;;23.70;8.07;;;;;;;22.24;54.67;101595.31;4915227;29;20055;-74
2022/08/13 01:05:06;;;;;;;12.75;8.30;;;;;;;22.17;54.53;101591.84;4923593;29;20115;-77
2022/08/13 01:07:32;;;;;;;13.30;7.47;;;;;;;22.18;54.42;101588.03;4935141;29;20038;-77
2022/08/13 01:09:58;;;;;;;16.60;8.57;;;;;;;22.12;54.63;101585.19;4910600;29;20048;-75
2022/08/13 01:12:24;;;;;;;24.48;8.00;;;;;;;22.08;54.81;101589.47;4935572;29;20142;-75
2022/08/13 01:14:50;;;;;;;16.65;8.10;;;;;;;22.04;54.49;101587.47;4935343;29;20087;-75
2022/08/13 01:17:22;;;;;;;15.95;8.48;;;;;;;22.00;54.66;101589.84;4921290;29;20035;-74
2022/08/13 01:19:49;;;;;;;15.88;7.28;;;;;;;21.98;54.54;101586.50;4922732;29;20028;-75
2022/08/13 01:22:15;;;;;;;15.15;8.13;;;;;;;21.99;54.49;101582.72;4923575;29;20096;-75
2022/08/13 01:24:41;;;;;;;13.20;7.45;;;;;;;21.95;54.01;101584.25;4903513;29;20419;-75
2022/08/13 01:27:08;;;;;;;19.27;7.97;;;;;;;21.90;54.53;101592.34;4933733;29;20172;-76
2022/08/13 01:29:35;;;;;;;19.02;8.52;;;;;;;21.80;54.78;101587.50;4915992;29;20027;-75
2022/08/13 01:32:00;;;;;;;12.70;7.72;;;;;;;21.72;55.16;101590.56;4916864;29;20407;-75
2022/08/13 01:34:26;;;;;;;18.88;7.78;;;;;;;21.73;54.65;101586.78;4914863;29;20044;-75
2022/08/13 01:36:54;;;;;;;15.73;8.10;;;;;;;21.73;54.67;101585.94;4928091;29;20091;-75
2022/08/13 01:39:20;;;;;;;21.75;8.35;;;;;;;21.76;53.75;101586.28;4918836;29;20395;-75
2022/08/13 01:41:45;;;;;;;16.65;8.23;;;;;;;21.70;54.11;101590.81;4933736;29;20027;-75
2022/08/13 01:44:11;;;;;;;19.25;8.60;;;;;;;21.63;54.29;101590.09;4924147;29;20059;-74
2022/08/13 01:52:07;;;;;;;14.02;7.85;;;;;;;21.58;54.08;101581.75;4916196;29;20518;-76
2022/08/13 01:54:34;;;;;;;17.27;8.25;;;;;;;21.61;52.78;101594.97;4929818;29;20035;-75
2022/08/13 01:57:01;;;;;;;12.00;7.70;;;;;;;21.56;53.45;101577.59;4917452;29;20050;-75
2022/08/13 01:59:27;;;;;;;17.73;8.87;;;;;;;21.49;53.61;101585.94;4918203;29;20028;-75
2022/08/13 02:01:53;;;;;;;16.50;8.48;;;;;;;21.45;53.56;101585.53;4933797;29;20055;-75
2022/08/13 02:04:20;;;;;;;15.27;8.57;;;;;;;21.50;53.25;101593.06;4934209;29;20067;-74
2022/08/13 02:06:45;;;;;;;17.50;8.68;;;;;;;21.50;53.05;101592.22;4933052;29;20027;-74
2022/08/13 02:09:11;;;;;;;14.52;8.00;;;;;;;21.41;53.52;101591.75;4934809;29;20051;-74
2022/08/13 02:11:38;;;;;;;22.80;8.85;;;;;;;21.37;53.34;101590.50;4932926;29;20071;-75
2022/08/13 02:14:04;;;;;;;;;;;;;;;21.32;53.67;101590.38;4901966;29;20023;-75
2022/08/13 02:16:36;;;;;;;16.58;7.15;;;;;;;21.32;53.47;101584.91;4932981;29;19919;-76
2022/08/13 02:19:03;;;;;;;20.27;8.35;;;;;;;21.30;53.51;101587.91;4921566;29;20028;-76
2022/08/13 02:21:33;;;;;;;20.90;8.30;;;;;;;21.26;53.01;101587.50;4933957;29;20027;-75
2022/08/13 02:23:59;;;;;;;19.05;8.35;;;;;;;21.22;53.13;101586.34;4933262;29;20038;-74
2022/08/13 02:26:27;;;;;;;16.70;7.88;;;;;;;21.16;53.83;101583.69;4935972;29;20036;-75
2022/08/13 02:28:54;;;;;;;28.60;9.32;;;;;;;21.13;53.64;101590.47;4947506;29;20035;-75
2022/08/13 02:31:20;;;;;;;16.50;8.05;;;;;;;21.08;54.10;101584.84;4933995;29;20416;-75
2022/08/13 02:33:46;;;;;;;14.80;8.23;;;;;;;21.08;53.61;101589.50;4916311;29;20063;-75
2022/08/13 02:36:12;;;;;;;16.98;8.65;;;;;;;21.10;52.92;101593.69;4935208;29;20376;-75
2022/08/13 02:38:37;;;;;;;17.25;7.47;;;;;;;21.12;52.55;101591.53;4934142;29;20058;-75
2022/08/13 02:43:49;;;;;;;19.27;8.32;;;;;;;21.09;51.93;101581.06;4919094;29;20043;-76
2022/08/13 02:46:16;;;;;;;19.23;8.70;;;;;;;21.01;52.61;101584.97;4915773;29;20083;-75
2022/08/13 02:48:42;;;;;;;15.77;9.40;;;;;;;21.00;52.18;101582.44;4933682;29;20292;-76
2022/08/13 02:51:11;;;;;;;17.70;8.63;;;;;;;21.04;51.54;101584.50;4935326;29;20027;-75
2022/08/13 02:53:38;;;;;;;17.77;8.52;;;;;;;20.99;51.63;101589.00;4932621;29;20376;-74
2022/08/13 02:56:06;;;;;;;21.35;9.25;;;;;;;20.89;51.61;101591.47;4933665;29;20027;-74
2022/08/13 02:58:31;;;;;;;13.95;8.05;;;;;;;20.90;51.63;101593.94;4916979;29;20055;-75
2022/08/13 03:00:57;;;;;;;23.13;8.73;;;;;;;20.82;52.01;101586.91;4933666;29;20372;-74
2022/08/13 03:03:22;;;;;;;26.58;9.00;;;;;;;20.75;52.16;101585.34;4929453;29;20657;-75
2022/08/13 03:05:48;;;;;;;25.50;8.93;;;;;;;20.75;52.24;101588.91;4933264;29;20355;-75
2022/08/13 03:08:13;;;;;;;19.85;8.27;;;;;;;20.73;51.92;101593.78;4933317;29;20067;-75
2022/08/13 03:10:40;;;;;;;15.60;8.30;;;;;;;20.70;52.52;101583.31;4934054;29;20050;-75
2022/08/13 03:13:26;;;;;;;14.13;8.65;;;;;;;20.69;52.03;101587.09;4934715;29;20027;-76
2022/08/13 03:15:54;;;;;;;22.50;9.63;;;;;;;20.69;51.68;101592.56;4917059;29;20381;-76
2022/08/13 03:18:22;;;;;;;16.25;9.00;;;;;;;20.67;51.72;101583.78;4934018;29;20051;-75
2022/08/13 03:20:49;;;;;;;19.27;9.13;;;;;;;20.60;52.13;101580.28;4933023;29;20394;-74
2022/08/13 03:23:14;;;;;;;25.97;8.07;;;;;;;20.61;52.24;101584.69;4932969;29;20032;-75
2022/08/13 03:25:40;;;;;;;28.00;8.35;;;;;;;20.61;51.85;101585.50;4931858;29;20036;-76
2022/08/13 03:28:06;;;;;;;19.65;8.55;;;;;;;20.56;51.82;101592.72;4931885;29;20570;-76
2022/08/13 03:30:34;;;;;;;21.48;8.95;;;;;;;20.54;51.91;101597.63;4932022;29;20031;-75
2022/08/13 03:33:10;;;;;;;16.65;8.35;;;;;;;20.44;52.34;101589.09;4933307;29;20079;-76
2022/08/13 03:35:37;;;;;;;18.55;9.52;;;;;;;20.38;52.95;101591.69;4932212;29;20174;-75
2022/08/13 03:38:04;;;;;;;18.00;8.63;;;;;;;20.36;52.78;101582.88;4932864;29;20039;-75
2022/08/13 03:41:00;;;;;;;17.70;8.10;;;;;;;20.33;53.17;101588.78;4915608;29;20398;-73
2022/08/13 03:43:16;;;;;;;12.40;8.50;;;;;;;20.28;53.06;101591.38;4941798;29;20044;-75
2022/08/13 03:45:42;;;;;;;23.77;8.40;;;;;;;20.26;53.47;101588.03;4932370;29;20406;-75
2022/08/13 03:48:08;;;;;;;11.10;7.82;;;;;;;20.22;53.12;101586.84;4934517;29;20038;-75
2022/08/13 03:50:33;;;;;;;15.95;8.07;;;;;;;20.20;53.29;101582.66;4933807;29;20027;-77
2022/08/13 03:53:03;;;;;;;19.60;8.60;;;;;;;20.24;52.88;101590.16;4934654;29;20480;-74
2022/08/13 03:55:30;;;;;;;17.30;8.20;;;;;;;20.21;53.04;101590.59;4933632;29;20160;-75
2022/08/13 03:57:57;;;;;;;18.27;8.60;;;;;;;20.18;53.23;101588.34;4927370;29;20046;-75
2022/08/13 04:00:22;;;;;;;13.40;7.95;;;;;;;20.17;52.81;101587.50;4915924;29;20035;-76
2022/08/13 04:02:48;;;;;;;18.05;8.82;;;;;;;20.15;53.22;101583.34;4925237;29;20132;-75
2022/08/13 04:05:16;;;;;;;16.80;8.50;;;;;;;20.11;53.35;101587.56;4931399;29;20046;-74
2022/08/13 04:07:43;;;;;;;15.23;9.32;;;;;;;20.09;53.43;101589.69;4930104;29;20882;-75
2022/08/13 04:10:11;;;;;;;20.42;8.55;;;;;;;20.09;53.33;101590.53;4915850;29;20032;-76
2022/08/13 04:12:37;;;;;;;19.13;8.48;;;;;;;20.09;53.24;101584.22;4921599;29;20471;-75
2022/08/13 04:15:03;;;;;;;18.80;8.75;;;;;;;20.05;53.18;101586.59;4933802;29;20043;-75
2022/08/13 04:17:29;;;;;;;15.55;9.75;;;;;;;20.02;53.07;101595.25;4926728;29;20164;-74
2022/08/13 04:19:57;;;;;;;16.60;9.13;;;;;;;20.01;53.03;101589.97;4921730;29;20399;-73
2022/08/13 04:22:23;;;;;;;18.75;9.23;;;;;;;19.93;53.10;101588.38;4927037;29;20673;-76
2022/08/13 04:24:49;;;;;;;19.10;8.50;;;;;;;19.89;53.72;101588.00;4927579;29;20067;-75
2022/08/13 04:27:14;;;;;;;17.42;8.52;;;;;;;19.86;53.58;101587.63;4926769;29;20505;-74
2022/08/13 04:29:39;;;;;;;14.02;7.93;;;;;;;19.84;53.85;101582.38;4924190;29;20040;-75
2022/08/13 04:32:05;;;;;;;19.55;9.15;;;;;;;19.79;53.84;101582.22;4927655;29;20516;-76
2022/08/13 04:34:30;;;;;;;15.85;8.25;;;;;;;19.83;53.78;101590.81;4929565;29;20522;-75
2022/08/13 04:36:56;;;;;;;30.48;9.60;;;;;;;19.79;54.04;101582.22;4928853;29;20118;-77
2022/08/13 04:39:25;;;;;;;16.67;9.40;;;;;;;19.74;53.79;101582.91;4927085;29;20040;-76
2022/08/13 04:41:51;;;;;;;18.70;8.88;;;;;;;19.73;53.97;101588.59;4931429;29;20115;-75
2022/08/13 04:44:16;;;;;;;18.73;9.13;;;;;;;19.76;53.65;101582.69;4933858;29;20106;-74
2022/08/13 04:46:42;;;;;;;17.30;8.50;;;;;;;19.78;53.72;101588.75;4933381;29;20165;-76
2022/08/13 04:49:11;;;;;;;24.88;9.15;;;;;;;19.82;53.52;101587.22;4933527;29;20035;-77
2022/08/13 04:51:37;;;;;;;23.20;9.07;;;;;;;19.83;54.17;101591.66;4933329;29;20547;-76
2022/08/13 04:54:02;;;;;;;28.42;8.95;;;;;;;19.81;53.90;101587.47;4931877;29;20038;-76
2022/08/13 04:56:28;;;;;;;18.17;8.57;;;;;;;19.84;53.87;101590.59;4932707;29;20035;-77
2022/08/13 04:58:53;;;;;;;13.85;8.40;;;;;;;19.86;54.22;101587.63;4932229;29;20038;-77
2022/08/13 05:01:21;;;;;;;19.50;8.00;;;;;;;19.87;54.14;101579.19;4930869;29;20035;-74
2022/08/13 05:03:46;;;;;;;14.32;7.82;;;;;;;19.95;54.24;101583.53;4936875;29;20031;-76
2022/08/13 05:06:12;;;;;;;16.58;8.80;;;;;;;19.99;53.95;101582.03;4927779;29;20035;-76
2022/08/13 05:08:38;;;;;;;19.98;8.35;;;;;;;20.04;54.06;101584.09;4933788;29;20046;-75
2022/08/13 05:11:04;;;;;;;15.65;8.57;;;;;;;20.10;53.86;101584.00;4934166;29;20119;-75
2022/08/13 05:13:32;;;;;;;21.23;8.52;;;;;;;20.15;53.41;101588.78;4933235;29;20122;-75
2022/08/13 05:16:00;;;;;;;18.17;8.98;;;;;;;20.22;53.00;101586.84;4932257;29;20074;-76
2022/08/13 05:18:28;;;;;;;18.88;8.98;;;;;;;20.26;52.79;101579.00;4918031;29;20035;-74
2022/08/13 05:20:55;;;;;;;16.83;8.82;;;;;;;20.29;52.48;101582.09;4932408;29;20023;-77
2022/08/13 05:23:21;;;;;;;13.70;8.48;;;;;;;20.32;53.23;101584.38;4931884;29;20032;-74
2022/08/13 05:25:47;;;;;;;19.20;9.50;;;;;;;20.36;52.62;101582.88;4932460;29;20106;-75
2022/08/13 05:28:13;;;;;;;17.13;9.57;;;;;;;20.38;52.80;101585.38;4931381;29;20122;-76
2022/08/13 05:30:38;;;;;;;20.77;8.90;;;;;;;20.47;53.12;101585.91;4932671;29;20470;-74
2022/08/13 05:33:13;;;;;;;17.40;9.25;;;;;;;20.54;52.97;101583.94;4932115;29;20504;-75
2022/08/13 05:35:39;;;;;;;15.57;8.07;;;;;;;20.63;52.77;101590.75;4931220;29;20167;-75
2022/08/13 05:38:05;;;;;;;21.85;8.70;;;;;;;20.76;52.41;101587.84;4932179;29;20036;-75
2022/08/13 05:40:30;;;;;;;19.13;8.88;;;;;;;20.82;51.70;101594.28;4932569;29;20090;-75
2022/08/13 05:42:59;;;;;;;21.42;9.25;;;;;;;20.92;51.68;101577.31;4932128;29;20024;-74
2022/08/13 05:45:25;;;;;;;17.80;8.20;;;;;;;20.98;51.49;101588.16;4933371;29;20028;-74
2022/08/13 05:47:51;;;;;;;20.45;8.65;;;;;;;21.03;51.59;101588.28;4935873;29;20028;-75
2022/08/13 05:50:16;;;;;;;16.95;8.60;;;;;;;21.13;50.96;101587.72;4936214;29;20048;-75
2022/08/13 05:52:42;;;;;;;23.52;8.93;;;;;;;21.37;51.08;101593.25;4932172;29;20032;-75
2022/08/13 05:55:12;;;;;;;18.75;8.45;;;;;;;21.80;49.66;101597.59;4931360;29;20044;-76
2022/08/13 05:57:40;;;;;;;36.55;8.82;;;;;;;22.21;49.68;101604.03;4931607;29;20069;-75
2022/08/13 06:05:37;;;;;;;18.85;8.48;;;;;;;24.90;43.06;101599.63;4931955;29;20476;-77
2022/08/13 06:08:04;;;;;;;26.55;8.25;;;;;;;25.76;41.73;101601.50;4919099;29;20423;-74
2022/08/13 06:10:30;;;;;;;21.67;8.82;;;;;;;26.22;40.13;101596.28;4932168;29;20526;-75
2022/08/13 06:12:57;;;;;;;32.03;8.45;;;;;;;26.92;39.20;101594.88;4931938;29;20209;-75
2022/08/13 06:15:22;;;;;;;19.35;8.77;;;;;;;28.12;36.25;101603.72;4930455;29;20061;-75
2022/08/13 06:17:50;;;;;;;22.17;7.55;;;;;;;28.73;35.66;101593.50;4931302;29;20067;-76
2022/08/13 06:20:17;;;;;;;16.55;8.10;;;;;;;28.82;34.38;101602.84;4931714;29;20411;-74
2022/08/13 06:22:42;;;;;;;30.02;8.95;;;;;;;29.20;34.47;101600.41;4931604;29;20030;-76
2022/08/13 06:25:08;;;;;;;33.42;8.07;;;;;;;29.06;34.27;101609.38;4917617;29;20023;-75
2022/08/13 06:27:33;;;;;;;23.08;7.97;;;;;;;28.65;34.36;101603.25;4931653;29;20082;-74
2022/08/13 06:30:00;;;;;;;18.27;7.05;;;;;;;29.10;33.79;101604.91;4931933;29;20016;-74
2022/08/13 06:32:25;;;;;;;21.65;6.95;;;;;;;29.31;33.55;101610.31;4933411;29;20068;-74
2022/08/13 06:34:51;;;;;;;16.27;6.90;;;;;;;29.64;32.99;101605.00;4906702;29;20048;-75
2022/08/13 06:37:17;;;;;;;19.48;6.78;;;;;;;30.64;31.20;101606.13;4930195;29;20035;-76
2022/08/13 06:39:44;;;;;;;20.67;7.00;;;;;;;30.72;30.84;101601.84;4931623;29;20124;-75
2022/08/13 06:42:09;;;;;;;17.38;5.90;;;;;;;30.84;30.57;101605.88;4927453;29;20178;-75
2022/08/13 06:44:35;;;;;;;15.40;5.37;;;;;;;31.14;28.92;101606.50;4937992;29;20122;-76
2022/08/13 06:47:02;;;;;;;34.37;7.10;;;;;;;30.76;29.33;101609.28;4929786;29;20713;-74
2022/08/13 06:49:27;;;;;;;17.00;5.45;;;;;;;30.62;29.60;101602.81;4931092;29;20064;-74
2022/08/13 06:51:53;;;;;;;22.23;6.07;;;;;;;30.60;29.62;101603.13;4929576;29;20086;-75
2022/08/13 06:54:18;;;;;;;15.53;5.50;;;;;;;32.39;26.34;101615.09;4926280;29;20038;-78
2022/08/13 06:56:44;;;;;;;28.63;6.53;;;;;;;31.61;27.03;101607.41;4933272;29;20039;-74
2022/08/13 06:59:13;;;;;;;18.93;6.23;;;;;;;31.23;27.86;101612.22;4930661;29;20511;-75
2022/08/13 07:01:40;;;;;;;25.20;6.25;;;;;;;31.47;27.59;101612.13;4929952;29;20479;-76
2022/08/13 07:04:10;;;;;;;20.23;6.13;;;;;;;31.38;28.22;101605.59;4929808;29;20023;-75
2022/08/13 07:06:36;;;;;;;11.93;5.50;;;;;;;32.28;26.93;101606.16;4929922;29;20161;-75
2022/08/13 07:09:02;;;;;;;14.63;6.47;;;;;;;32.38;26.87;101602.31;4931750;29;20200;-76
2022/08/13 07:11:29;;;;;;;13.80;5.55;;;;;;;32.26;26.51;101614.00;4932225;29;20134;-74
2022/08/13 07:14:00;;;;;;;13.85;5.55;;;;;;;33.01;26.15;101607.06;4932050;29;20034;-74
2022/08/13 07:16:30;;;;;;;14.57;5.50;;;;;;;33.11;25.78;101600.44;4931258;29;20031;-75
2022/08/13 07:18:57;;;;;;;23.38;6.20;;;;;;;32.64;26.60;101600.66;4931133;29;20087;-76
2022/08/13 07:21:24;;;;;;;21.73;6.25;;;;;;;32.18;27.56;101607.19;4913015;29;20032;-75
2022/08/13 07:23:52;;;;;;;24.15;5.97;;;;;;;32.65;26.63;101605.13;4925463;29;20028;-76
2022/08/13 07:26:18;;;;;;;19.75;5.45;;;;;;;33.11;26.43;101600.44;4933256;29;20035;-76
2022/08/13 07:28:45;;;;;;;14.50;5.93;;;;;;;33.34;25.26;101606.84;4920149;29;20042;-76
2022/08/13 07:31:11;;;;;;;23.65;5.47;;;;;;;33.39;25.90;101606.72;4912950;29;20611;-76
2022/08/13 07:33:39;;;;;;;17.17;4.97;;;;;;;33.60;25.73;101602.28;4927967;29;20044;-75
2022/08/13 07:36:08;;;;;;;19.40;5.18;;;;;;;33.97;24.69;101607.72;4932017;29;20082;-76
2022/08/13 07:38:33;;;;;;;14.15;5.30;;;;;;;33.59;25.02;101610.97;4936727;29;20444;-75
2022/08/13 07:41:02;;;;;;;26.00;5.97;;;;;;;32.83;25.59;101606.06;4917307;29;20019;-75
2022/08/13 07:43:29;;;;;;;18.67;5.30;;;;;;;31.92;27.35;101609.63;4933287;29;20040;-75
2022/08/13 07:46:02;;;;;;;15.70;5.75;;;;;;;32.10;27.28;101617.09;4935231;29;20115;-75
2022/08/13 07:48:30;;;;;;;21.30;5.13;;;;;;;32.51;26.87;101616.25;4940460;29;20090;-76
2022/08/13 07:50:55;;;;;;;18.40;4.60;;;;;;;33.47;25.92;101622.69;4913337;29;20114;-78
2022/08/13 07:53:23;;;;;;;19.57;5.13;;;;;;;33.99;25.25;101617.38;4939980;29;20425;-76
2022/08/13 07:55:49;;;;;;;15.95;5.30;;;;;;;33.96;26.05;101614.41;4933813;29;20032;-77
2022/08/13 07:58:15;;;;;;;22.55;5.32;;;;;;;34.65;24.40;101622.22;4933853;29;20036;-75
2022/08/13 08:00:41;;;;;;;19.88;4.70;;;;;;;34.61;24.37;101612.88;4932549;29;20035;-74
2022/08/13 08:03:06;;;;;;;10.83;4.13;;;;;;;34.97;23.95;101623.75;4932419;29;20057;-74
2022/08/13 08:05:34;;;;;;;13.73;4.40;;;;;;;35.31;23.94;101624.88;4933293;29;20399;-74
2022/08/13 08:08:00;;;;;;;12.52;4.80;;;;;;;35.08;23.79;101613.91;4932238;29;20106;-75
2022/08/13 08:10:26;;;;;;;;;;;;;;;36.20;22.19;101622.34;4934348;29;20032;-75
2022/08/13 08:12:59;;;;;;;22.55;5.07;;;;;;;36.54;21.95;101621.31;4932835;29;19921;-76
2022/08/13 08:15:26;;;;;;;23.35;4.80;;;;;;;36.76;21.51;101617.41;4928702;29;20447;-76
2022/08/13 08:17:53;;;;;;;14.63;4.57;;;;;;;36.48;21.92;101623.50;4944089;29;20035;-77
2022/08/13 08:20:23;;;;;;;15.32;4.70;;;;;;;36.29;22.19;101625.13;4946610;29;20028;-75
2022/08/13 08:22:50;;;;;;;19.40;4.25;;;;;;;36.02;22.25;101624.38;4946557;29;20091;-74
2022/08/13 08:25:20;;;;;;;8.73;3.47;;;;;;;35.66;22.76;101625.69;4942051;29;20026;-75
2022/08/13 08:27:47;;;;;;;12.88;4.20;;;;;;;35.62;22.93;101624.69;4944989;29;20443;-77
2022/08/13 08:30:17;;;;;;;14.95;5.18;;;;;;;35.27;23.47;101621.94;4936454;29;20035;-78
2022/08/13 08:32:43;;;;;;;16.45;4.60;;;;;;;35.21;23.87;101622.47;4920102;29;20032;-75
2022/08/13 08:35:09;;;;;;;23.30;5.10;;;;;;;34.69;24.14;101628.81;4937777;29;20083;-75
2022/08/13 08:43:10;;;;;;;10.05;3.83;;;;;;;36.41;21.25;101628.81;4940567;29;20071;-75
2022/08/13 08:45:36;;;;;;;12.82;3.75;;;;;;;36.40;22.11;101629.97;4936411;29;20483;-74
2022/08/13 08:48:02;;;;;;;15.13;3.90;;;;;;;35.79;22.14;101623.84;4936363;29;20051;-75
2022/08/13 08:50:28;;;;;;;15.52;3.65;;;;;;;35.17;22.71;101625.88;4936622;29;20468;-74
2022/08/13 08:55:38;;;;;;;16.80;4.00;;;;;;;35.76;22.44;101621.72;4938997;29;20083;-77
2022/08/13 08:58:06;;;;;;;17.95;3.55;;;;;;;36.24;21.56;101620.53;4944610;29;20283;-75
2022/08/13 09:00:33;;;;;;;9.82;4.10;;;;;;;35.79;22.51;101623.84;4922081;29;20031;-75
2022/08/13 09:02:59;;;;;;;10.88;4.20;;;;;;;35.81;22.66;101615.88;4937543;29;20506;-75
2022/08/13 09:05:26;;;;;;;9.65;3.60;;;;;;;36.28;21.81;101617.84;4919991;29;20036;-75
2022/08/13 09:07:52;;;;;;;8.65;3.40;;;;;;;37.16;21.07;101625.34;4939896;29;20051;-76
2022/08/13 09:10:18;;;;;;;;;;;;;;;37.02;21.24;101621.97;4919588;29;20032;-75
2022/08/13 09:12:44;;;;;;;7.85;3.47;;;;;;;36.91;21.05;101619.56;4936990;29;19911;-74
2022/08/13 09:15:12;;;;;;;13.98;3.80;;;;;;;36.47;21.14;101624.66;4936948;29;20105;-75
2022/08/13 09:17:38;;;;;;;7.55;3.28;;;;;;;36.59;21.72;101612.72;4936241;29;20468;-75
2022/08/13 09:20:12;;;;;;;9.55;3.72;;;;;;;35.10;22.73;101616.34;4919838;29;20031;-75
2022/08/13 09:22:40;;;;;;;14.40;3.72;;;;;;;34.96;23.86;101608.91;4937326;29;20032;-78
2022/08/13 09:25:06;;;;;;;26.80;4.43;;;;;;;33.98;24.41;101609.34;4938306;29;20438;-74
2022/08/13 09:27:34;;;;;;;14.18;4.20;;;;;;;34.12;24.31;101607.28;4934497;29;20288;-74
2022/08/13 09:30:00;;;;;;;8.07;3.45;;;;;;;34.48;24.47;101615.44;4932531;29;20364;-76
2022/08/13 09:32:27;;;;;;;11.75;3.50;;;;;;;36.00;22.92;101612.72;4909131;29;20036;-75
2022/08/13 09:34:53;;;;;;;12.98;3.47;;;;;;;35.64;23.42;101615.97;4930073;29;20423;-76
2022/08/13 09:37:18;;;;;;;22.00;3.50;;;;;;;34.80;23.45;101609.75;4916125;29;20028;-75
2022/08/13 09:39:52;;;;;;;15.27;3.67;;;;;;;35.77;23.00;101612.13;4916602;29;20373;-75
2022/08/13 09:42:28;;;;;;;13.20;3.90;;;;;;;35.97;22.19;101613.34;4915659;29;20032;-74
2022/08/13 09:44:56;;;;;;;14.38;4.60;;;;;;;36.53;22.33;101613.25;4916478;29;20032;-76
2022/08/13 09:47:22;;;;;;;8.50;3.70;;;;;;;36.58;21.02;101604.69;4915130;29;20039;-74
2022/08/13 09:49:48;;;;;;;22.02;4.22;;;;;;;36.81;21.44;101608.78;4916376;29;20044;-76
2022/08/13 09:52:15;;;;;;;16.20;3.88;;;;;;;36.53;21.26;101597.25;4910513;29;20024;-75
2022/08/13 09:54:42;;;;;;;13.15;3.60;;;;;;;35.65;22.59;101609.19;4915530;29;20075;-76
2022/08/13 09:57:07;;;;;;;15.85;3.88;;;;;;;35.70;22.64;101603.41;4915630;29;20028;-75
2022/08/13 09:59:33;;;;;;;15.87;3.97;;;;;;;35.84;22.79;101598.44;4917255;29;20405;-75
2022/08/13 10:02:05;;;;;;;18.13;4.22;;;;;;;36.33;21.79;101595.25;4916394;29;20125;-74
2022/08/13 10:04:31;;;;;;;11.70;3.85;;;;;;;36.86;21.81;101593.72;4917115;29;20068;-74
2022/08/13 10:06:58;;;;;;;9.18;3.70;;;;;;;36.07;22.13;101595.38;4913846;29;20067;-75
2022/08/13 10:09:26;;;;;;;12.55;3.80;;;;;;;35.89;22.66;101589.84;4908154;29;20055;-75
2022/08/13 10:11:52;;;;;;;8.63;2.95;;;;;;;36.94;20.76;101597.59;4920548;29;20075;-76
2022/08/13 10:14:18;;;;;;;14.52;3.38;;;;;;;37.31;20.89;101593.81;4922086;29;20016;-74
2022/08/13 10:16:43;;;;;;;9.50;3.10;;;;;;;37.46;21.14;101591.50;4914038;29;20051;-74
2022/08/13 10:19:08;;;;;;;9.43;3.50;;;;;;;37.60;20.47;101586.41;4910427;29;20037;-75
2022/08/13 10:21:34;;;;;;;8.77;2.97;;;;;;;37.52;20.57;101584.53;4910963;29;20039;-75
2022/08/13 10:23:59;;;;;;;18.80;3.60;;;;;;;37.34;20.28;101593.13;4903519;29;20036;-76
2022/08/13 10:26:24;;;;;;;8.07;3.23;;;;;;;37.41;21.17;101581.31;4915685;29;20554;-79
2022/08/13 10:28:50;;;;;;;16.67;3.23;;;;;;;37.91;20.04;101585.03;4921068;29;20036;-75
2022/08/13 10:31:15;;;;;;;11.32;3.03;;;;;;;35.96;22.06;101583.72;4915761;29;20040;-75
2022/08/13 10:33:40;;;;;;;21.00;4.33;;;;;;;35.21;22.93;101580.47;4931236;29;20141;-77
2022/08/13 10:36:07;;;;;;;12.47;3.40;;;;;;;36.22;21.64;101589.22;4919865;29;20028;-75
2022/08/13 10:38:33;;;;;;;7.90;2.90;;;;;;;36.62;21.18;101584.00;4913518;29;20047;-75
2022/08/13 10:41:07;;;;;;;12.70;3.08;;;;;;;35.89;21.47;101578.66;4915000;29;20028;-77
2022/08/13 10:43:35;;;;;;;6.97;3.30;;;;;;;36.08;21.65;101580.25;4913605;29;20334;-76
2022/08/13 10:46:00;;;;;;;8.95;3.40;;;;;;;34.65;23.01;101574.69;4918365;29;20102;-75
2022/08/13 10:48:27;;;;;;;15.73;3.23;;;;;;;34.52;23.30;101568.06;4914898;29;20488;-76
2022/08/13 10:50:53;;;;;;;12.90;3.83;;;;;;;35.27;22.88;101565.16;4915171;29;20032;-76
2022/08/13 10:56:04;;;;;;;10.85;3.28;;;;;;;35.90;21.95;101569.06;4916421;29;20046;-75
2022/08/13 10:58:33;;;;;;;15.32;3.10;;;;;;;35.22;22.64;101566.16;4914153;29;20140;-77
2022/08/13 11:01:03;;;;;;;10.85;2.78;;;;;;;35.68;21.26;101572.13;4920819;29;20036;-76
2022/08/13 11:03:33;;;;;;;7.25;2.90;;;;;;;36.80;19.44;101567.84;4923801;29;20518;-77
2022/08/13 11:06:04;;;;;;;15.95;3.20;;;;;;;36.92;18.95;101562.31;4929177;29;20023;-76
2022/08/13 11:08:38;;;;;;;10.10;2.90;;;;;;;36.65;19.77;101566.53;4931054;29;20032;-79
2022/08/13 11:11:05;;;;;;;9.00;3.17;;;;;;;36.23;19.44;101565.63;4928548;29;20024;-76
2022/08/13 11:13:33;;;;;;;7.63;3.38;;;;;;;36.27;19.74;101566.59;4921616;29;20084;-77
2022/08/13 11:16:02;;;;;;;11.35;2.70;;;;;;;35.89;20.94;101566.59;4913856;29;20511;-75
2022/08/13 11:18:28;;;;;;;6.75;4.20;;;;;;;36.34;21.35;101554.81;4916474;29;20024;-77
2022/08/13 11:21:06;;;;;;;7.13;2.70;;;;;;;35.79;19.98;101556.63;4915585;29;20111;-77
2022/08/13 11:23:32;;;;;;;5.88;2.10;;;;;;;36.39;18.58;101557.44;4920594;29;20064;-78
2022/08/13 11:25:57;;;;;;;8.48;2.40;;;;;;;36.91;17.40;101559.84;4927349;29;20020;-78
2022/08/13 11:28:23;;;;;;;7.10;2.37;;;;;;;36.88;18.24;101552.13;4923969;29;20064;-80
2022/08/13 11:30:49;;;;;;;7.30;2.10;;;;;;;36.94;18.03;101552.72;4921860;29;20036;-75
2022/08/13 11:33:15;;;;;;;3.90;1.90;;;;;;;37.01;17.39;101550.19;4923137;29;20047;-76
2022/08/13 11:35:42;;;;;;;5.93;2.22;;;;;;;37.47;17.21;101546.25;4938466;29;20020;-76
2022/08/13 11:38:07;;;;;;;;;;;;;;;37.35;17.48;101538.59;4939289;29;20095;-79
2022/08/13 11:40:33;;;;;;;;;;;;;;;37.17;17.26;101548.38;4942592;29;19976;-76
2022/08/13 11:42:59;;;;;;;3.47;2.30;;;;;;;36.83;16.53;101539.13;4940758;29;19952;-77
2022/08/13 11:45:24;;;;;;;17.47;2.77;;;;;;;36.38;17.89;101542.59;4939335;29;20087;-79
2022/08/13 11:47:50;;;;;;;19.27;2.73;;;;;;;36.72;17.83;101542.69;4935849;29;20123;-79
2022/08/13 11:50:15;;;;;;;13.40;2.70;;;;;;;36.83;18.06;101541.09;4936705;29;20376;-82